createdAt,value
2023-04-10T00:07:46.961Z,5.5
2023-04-10T00:17:47.265Z,5.4
2023-04-10T00:27:48.026Z,5.3
2023-04-10T00:47:49.131Z,5.2
2023-04-10T00:57:49.412Z,5.2
2023-04-10T01:07:50.295Z,5.2
2023-04-10T01:17:50.651Z,5.2
2023-04-10T01:27:51.447Z,5
2023-04-10T01:37:52.387Z,4.9
2023-04-10T01:47:52.827Z,4.9
2023-04-10T01:57:53.797Z,5
2023-04-10T02:07:54.773Z,5
2023-04-10T02:17:54.937Z,5
2023-04-10T02:27:55.172Z,5
2023-04-10T02:37:55.387Z,5
2023-04-10T02:57:56.464Z,5
2023-04-10T03:07:57.350Z,5
2023-04-10T03:17:57.880Z,5
2023-04-10T03:27:58.247Z,4.9
2023-04-10T03:37:58.652Z,4.9
2023-04-10T03:47:59.132Z,4.9
2023-04-10T04:08:00.404Z,4.7
2023-04-10T04:18:00.552Z,4.7
2023-04-10T04:28:01.078Z,4.6
2023-04-10T04:48:02.398Z,4.5
2023-04-10T04:58:02.520Z,4.5
2023-04-10T05:08:03.528Z,4.4
2023-04-10T05:18:03.817Z,4.4
2023-04-10T05:28:04.698Z,4.5
2023-04-10T05:38:05.239Z,4.6
2023-04-10T05:48:06.137Z,4.8
2023-04-10T05:58:06.325Z,5
2023-04-10T06:08:06.942Z,5.4
2023-04-10T06:18:07.776Z,5.9
2023-04-10T06:28:07.959Z,6.5
2023-04-10T06:38:08.400Z,7.3
2023-04-10T06:58:09.183Z,8.5
2023-04-10T07:08:09.500Z,9.6
2023-04-10T07:18:10.369Z,11
2023-04-10T07:28:10.846Z,11.6
2023-04-10T07:38:11.456Z,11.8
2023-04-10T07:48:11.603Z,11.9
2023-04-10T07:58:12.427Z,12.2
2023-04-10T08:08:12.524Z,12.7
2023-04-10T08:18:13.505Z,13.2
2023-04-10T08:28:14.299Z,13.6
2023-04-10T08:38:14.974Z,14.2
2023-04-10T08:48:15.992Z,14.4
2023-04-10T08:58:17.053Z,14.5
2023-04-10T09:08:17.829Z,14.8
2023-04-10T09:18:18.505Z,15
2023-04-10T09:28:18.859Z,15.2
2023-04-10T09:38:19.310Z,15.7
2023-04-10T09:48:20.312Z,15.4
2023-04-10T09:58:20.491Z,15.3
2023-04-10T10:08:21.440Z,15.6
2023-04-10T10:18:21.895Z,15.9
2023-04-10T10:28:22.473Z,15.8
2023-04-10T10:38:23.281Z,15.7
2023-04-10T10:48:23.907Z,16.2
2023-04-10T10:58:24.154Z,15.8
2023-04-10T11:08:24.245Z,16.1
2023-04-10T11:18:24.377Z,16.3
2023-04-10T11:28:25.191Z,16.5
2023-04-10T11:48:26.988Z,16.7
2023-04-10T11:58:27.966Z,17.1
2023-04-10T12:08:28.546Z,17.4
2023-04-10T12:18:29.411Z,17.7
2023-04-10T12:28:30.359Z,17.5
2023-04-10T12:38:31.357Z,17.3
2023-04-10T12:48:31.647Z,17.3
2023-04-10T12:58:31.936Z,17.8
2023-04-10T13:08:32.506Z,17.9
2023-04-10T13:18:32.930Z,17.5
2023-04-10T13:28:33.142Z,17.3
2023-04-10T13:38:34.003Z,17.4
2023-04-10T13:48:40.563Z,17.4
2023-04-10T13:58:35.561Z,17.8
2023-04-10T14:08:36.006Z,17.4
2023-04-10T14:18:36.446Z,17.1
2023-04-10T14:28:36.943Z,17.1
2023-04-10T14:38:37.261Z,17.1
2023-04-10T14:48:37.832Z,17
2023-04-10T14:58:38.039Z,16.9
2023-04-10T15:08:39.009Z,16.8
2023-04-10T15:18:39.140Z,16.7
2023-04-10T15:28:39.281Z,16.7
2023-04-10T15:38:40.066Z,16.7
2023-04-10T15:48:40.104Z,16.7
2023-04-10T15:58:41.123Z,16.7
2023-04-10T16:08:41.367Z,16.6
2023-04-10T16:18:41.908Z,16.6
2023-04-10T16:28:42.934Z,16.7
2023-04-10T16:48:44.325Z,16.9
2023-04-10T16:58:44.766Z,16.7
2023-04-10T17:08:45.315Z,16.1
2023-04-10T17:18:45.808Z,15.7
2023-04-10T17:28:46.658Z,15
2023-04-10T17:58:48.959Z,12.7
2023-04-10T18:08:49.450Z,12.6
2023-04-10T18:18:50.395Z,12.4
2023-04-10T18:28:50.610Z,12.2
2023-04-10T18:48:52.199Z,12.2
2023-04-10T18:58:53.064Z,12.1
2023-04-10T19:08:53.797Z,11.9
2023-04-10T19:18:54.315Z,11.7
2023-04-10T19:28:55.304Z,11.7
2023-04-10T20:08:57.199Z,10.8
2023-04-10T20:28:58.334Z,10.5
2023-04-10T20:38:58.896Z,10.4
2023-04-10T20:48:59.317Z,10.3
2023-04-10T20:58:59.389Z,10.2
2023-04-10T21:09:00.096Z,10
2023-04-10T21:19:00.571Z,9.9
2023-04-10T21:29:01.458Z,9.7
2023-04-10T21:39:02.444Z,9.7
2023-04-10T21:49:02.555Z,9.6
2023-04-10T21:59:02.772Z,9.7
2023-04-10T22:09:02.876Z,9.6
2023-04-10T22:19:03.353Z,9.6
2023-04-10T22:29:04.426Z,9.6
2023-04-10T22:39:05.187Z,9.6
2023-04-10T22:49:06.045Z,9.6
2023-04-10T22:59:06.337Z,9.6
2023-04-10T23:09:06.571Z,9.6
2023-04-10T23:19:07.263Z,9.6
2023-04-10T23:39:07.492Z,9.6
2023-04-10T23:49:08.150Z,9.8
2023-04-10T23:59:08.527Z,10
